sensor_id;sensor_type;location;lat;lon;timestamp;temperature;humidity
14014;DHT22;49110;52.584;13.408;2023-04-25T00:00:25;12.00;94.10
14014;DHT22;49110;52.584;13.408;2023-04-25T00:01:26;12.00;94.20
14014;DHT22;49110;52.584;13.408;2023-04-25T00:02:26;12.00;94.10
14014;DHT22;49110;52.584;13.408;2023-04-25T00:03:28;12.00;94.00
14014;DHT22;49110;52.584;13.408;2023-04-25T00:04:29;12.00;93.90
14014;DHT22;49110;52.584;13.408;2023-04-25T00:05:30;12.00;93.80
14014;DHT22;49110;52.584;13.408;2023-04-25T00:06:31;12.00;93.80
14014;DHT22;49110;52.584;13.408;2023-04-25T00:07:33;12.00;94.00
14014;DHT22;49110;52.584;13.408;2023-04-25T00:08:33;12.00;94.10
14014;DHT22;49110;52.584;13.408;2023-04-25T00:09:34;12.00;93.90
14014;DHT22;49110;52.584;13.408;2023-04-25T00:10:34;12.00;93.90
14014;DHT22;49110;52.584;13.408;2023-04-25T00:11:35;12.00;93.90
14014;DHT22;49110;52.584;13.408;2023-04-25T00:12:37;12.00;93.80
14014;DHT22;49110;52.584;13.408;2023-04-25T00:13:38;11.90;93.70
14014;DHT22;49110;52.584;13.408;2023-04-25T00:14:41;12.00;93.80
14014;DHT22;49110;52.584;13.408;2023-04-25T00:15:42;11.90;93.70
14014;DHT22;49110;52.584;13.408;2023-04-25T00:16:43;11.90;93.70
14014;DHT22;49110;52.584;13.408;2023-04-25T00:17:44;11.90;93.60
14014;DHT22;49110;52.584;13.408;2023-04-25T00:18:45;11.90;93.50
14014;DHT22;49110;52.584;13.408;2023-04-25T00:19:51;11.90;93.60
14014;DHT22;49110;52.584;13.408;2023-04-25T00:20:52;11.80;93.60
14014;DHT22;49110;52.584;13.408;2023-04-25T00:21:54;11.80;93.60
14014;DHT22;49110;52.584;13.408;2023-04-25T00:22:55;11.80;93.50
14014;DHT22;49110;52.584;13.408;2023-04-25T00:23:56;11.80;93.50
14014;DHT22;49110;52.584;13.408;2023-04-25T00:24:56;11.90;93.60
14014;DHT22;49110;52.584;13.408;2023-04-25T00:26:00;11.80;93.40
14014;DHT22;49110;52.584;13.408;2023-04-25T00:27:00;11.80;93.50
14014;DHT22;49110;52.584;13.408;2023-04-25T00:28:01;11.90;93.80
14014;DHT22;49110;52.584;13.408;2023-04-25T00:29:02;11.80;93.70
14014;DHT22;49110;52.584;13.408;2023-04-25T00:30:03;11.90;93.40
14014;DHT22;49110;52.584;13.408;2023-04-25T00:31:04;11.80;93.50
14014;DHT22;49110;52.584;13.408;2023-04-25T00:32:05;11.80;93.00
14014;DHT22;49110;52.584;13.408;2023-04-25T00:33:06;11.70;93.10
14014;DHT22;49110;52.584;13.408;2023-04-25T00:34:07;11.70;93.20
14014;DHT22;49110;52.584;13.408;2023-04-25T00:35:09;11.60;93.10
14014;DHT22;49110;52.584;13.408;2023-04-25T00:36:11;11.60;93.00
14014;DHT22;49110;52.584;13.408;2023-04-25T00:37:12;11.60;93.00
14014;DHT22;49110;52.584;13.408;2023-04-25T00:38:13;11.60;93.10
14014;DHT22;49110;52.584;13.408;2023-04-25T00:39:19;11.60;93.20
14014;DHT22;49110;52.584;13.408;2023-04-25T00:40:21;11.70;93.30
14014;DHT22;49110;52.584;13.408;2023-04-25T00:41:22;11.70;93.20
14014;DHT22;49110;52.584;13.408;2023-04-25T00:42:22;11.80;93.10
14014;DHT22;49110;52.584;13.408;2023-04-25T00:43:26;11.70;92.70
14014;DHT22;49110;52.584;13.408;2023-04-25T00:44:27;11.70;92.70
14014;DHT22;49110;52.584;13.408;2023-04-25T00:45:29;11.70;92.90
14014;DHT22;49110;52.584;13.408;2023-04-25T00:46:31;11.70;92.70
14014;DHT22;49110;52.584;13.408;2023-04-25T00:47:33;11.70;92.60
14014;DHT22;49110;52.584;13.408;2023-04-25T00:48:36;11.80;93.00
14014;DHT22;49110;52.584;13.408;2023-04-25T00:49:37;11.80;92.70
14014;DHT22;49110;52.584;13.408;2023-04-25T00:50:38;11.80;92.70
14014;DHT22;49110;52.584;13.408;2023-04-25T00:51:38;11.70;92.70
14014;DHT22;49110;52.584;13.408;2023-04-25T00:52:42;11.70;92.70
14014;DHT22;49110;52.584;13.408;2023-04-25T00:53:43;11.70;92.90
14014;DHT22;49110;52.584;13.408;2023-04-25T00:54:44;11.70;92.70
14014;DHT22;49110;52.584;13.408;2023-04-25T00:55:44;11.70;92.70
14014;DHT22;49110;52.584;13.408;2023-04-25T00:56:45;11.70;92.70
14014;DHT22;49110;52.584;13.408;2023-04-25T00:57:46;11.70;92.70
14014;DHT22;49110;52.584;13.408;2023-04-25T00:58:48;11.60;92.60
14014;DHT22;49110;52.584;13.408;2023-04-25T00:59:51;11.60;92.80
14014;DHT22;49110;52.584;13.408;2023-04-25T01:00:52;11.70;92.80
14014;DHT22;49110;52.584;13.408;2023-04-25T01:01:53;11.70;92.90
14014;DHT22;49110;52.584;13.408;2023-04-25T01:02:53;11.60;93.10
14014;DHT22;49110;52.584;13.408;2023-04-25T01:03:54;11.70;93.10
14014;DHT22;49110;52.584;13.408;2023-04-25T01:04:56;11.70;92.90
14014;DHT22;49110;52.584;13.408;2023-04-25T01:05:56;11.60;92.80
14014;DHT22;49110;52.584;13.408;2023-04-25T01:06:58;11.60;93.00
14014;DHT22;49110;52.584;13.408;2023-04-25T01:07:58;11.60;93.00
14014;DHT22;49110;52.584;13.408;2023-04-25T01:08:59;11.60;92.90
14014;DHT22;49110;52.584;13.408;2023-04-25T01:10:01;11.60;92.90
14014;DHT22;49110;52.584;13.408;2023-04-25T01:11:01;11.60;93.00
14014;DHT22;49110;52.584;13.408;2023-04-25T01:12:02;11.60;93.10
14014;DHT22;49110;52.584;13.408;2023-04-25T01:13:03;11.50;93.10
14014;DHT22;49110;52.584;13.408;2023-04-25T01:14:04;11.50;93.10
14014;DHT22;49110;52.584;13.408;2023-04-25T01:15:05;11.60;93.00
14014;DHT22;49110;52.584;13.408;2023-04-25T01:16:06;11.60;93.10
14014;DHT22;49110;52.584;13.408;2023-04-25T01:17:08;11.60;93.10
14014;DHT22;49110;52.584;13.408;2023-04-25T01:18:09;11.60;92.90
14014;DHT22;49110;52.584;13.408;2023-04-25T01:19:11;11.60;92.90
14014;DHT22;49110;52.584;13.408;2023-04-25T01:20:14;11.70;92.90
14014;DHT22;49110;52.584;13.408;2023-04-25T01:21:14;11.60;92.90
14014;DHT22;49110;52.584;13.408;2023-04-25T01:22:15;11.60;92.90
14014;DHT22;49110;52.584;13.408;2023-04-25T01:23:18;11.60;92.90
14014;DHT22;49110;52.584;13.408;2023-04-25T01:24:19;11.60;92.90
14014;DHT22;49110;52.584;13.408;2023-04-25T01:25:19;11.60;93.00
14014;DHT22;49110;52.584;13.408;2023-04-25T01:26:21;11.50;92.80
14014;DHT22;49110;52.584;13.408;2023-04-25T01:27:22;11.50;92.90
14014;DHT22;49110;52.584;13.408;2023-04-25T01:28:23;11.60;93.10
14014;DHT22;49110;52.584;13.408;2023-04-25T01:29:24;11.60;93.20
14014;DHT22;49110;52.584;13.408;2023-04-25T01:30:28;11.70;93.10
14014;DHT22;49110;52.584;13.408;2023-04-25T01:31:30;11.60;92.90
14014;DHT22;49110;52.584;13.408;2023-04-25T01:32:31;11.70;92.90
14014;DHT22;49110;52.584;13.408;2023-04-25T01:33:38;11.60;92.70
14014;DHT22;49110;52.584;13.408;2023-04-25T01:34:39;11.60;92.80
14014;DHT22;49110;52.584;13.408;2023-04-25T01:35:39;11.60;92.80
14014;DHT22;49110;52.584;13.408;2023-04-25T01:36:40;11.70;92.90
14014;DHT22;49110;52.584;13.408;2023-04-25T01:37:42;11.70;92.80
14014;DHT22;49110;52.584;13.408;2023-04-25T01:38:43;11.60;92.70
14014;DHT22;49110;52.584;13.408;2023-04-25T01:39:44;11.70;92.90
14014;DHT22;49110;52.584;13.408;2023-04-25T01:40:45;11.70;92.90
14014;DHT22;49110;52.584;13.408;2023-04-25T01:41:47;11.70;92.90
14014;DHT22;49110;52.584;13.408;2023-04-25T01:42:48;11.70;92.90
14014;DHT22;49110;52.584;13.408;2023-04-25T01:43:49;11.70;92.90
14014;DHT22;49110;52.584;13.408;2023-04-25T01:44:49;11.70;92.90
14014;DHT22;49110;52.584;13.408;2023-04-25T01:45:50;11.60;92.70
14014;DHT22;49110;52.584;13.408;2023-04-25T01:46:51;11.60;92.80
14014;DHT22;49110;52.584;13.408;2023-04-25T01:47:52;11.60;92.80
14014;DHT22;49110;52.584;13.408;2023-04-25T01:48:52;11.60;92.80
14014;DHT22;49110;52.584;13.408;2023-04-25T01:49:54;11.60;92.60
14014;DHT22;49110;52.584;13.408;2023-04-25T01:50:54;11.60;92.70
14014;DHT22;49110;52.584;13.408;2023-04-25T01:51:55;11.60;92.80
14014;DHT22;49110;52.584;13.408;2023-04-25T01:52:56;11.60;92.80
14014;DHT22;49110;52.584;13.408;2023-04-25T01:53:57;11.60;92.70
14014;DHT22;49110;52.584;13.408;2023-04-25T01:54:59;11.60;92.80
14014;DHT22;49110;52.584;13.408;2023-04-25T01:56:01;11.60;92.80
14014;DHT22;49110;52.584;13.408;2023-04-25T01:57:01;11.50;92.60
14014;DHT22;49110;52.584;13.408;2023-04-25T01:58:05;11.50;92.80
14014;DHT22;49110;52.584;13.408;2023-04-25T01:59:10;11.50;92.60
14014;DHT22;49110;52.584;13.408;2023-04-25T02:00:11;11.50;92.70
14014;DHT22;49110;52.584;13.408;2023-04-25T02:01:12;11.50;92.80
14014;DHT22;49110;52.584;13.408;2023-04-25T02:02:12;11.40;92.70
14014;DHT22;49110;52.584;13.408;2023-04-25T02:03:13;11.50;93.00
14014;DHT22;49110;52.584;13.408;2023-04-25T02:04:13;11.40;92.90
14014;DHT22;49110;52.584;13.408;2023-04-25T02:05:14;11.50;93.00
14014;DHT22;49110;52.584;13.408;2023-04-25T02:06:14;11.40;92.80
14014;DHT22;49110;52.584;13.408;2023-04-25T02:07:15;11.40;93.00
14014;DHT22;49110;52.584;13.408;2023-04-25T02:08:16;11.50;93.20
14014;DHT22;49110;52.584;13.408;2023-04-25T02:09:17;11.50;93.30
14014;DHT22;49110;52.584;13.408;2023-04-25T02:10:17;11.50;93.30
14014;DHT22;49110;52.584;13.408;2023-04-25T02:11:18;11.60;93.40
14014;DHT22;49110;52.584;13.408;2023-04-25T02:12:18;11.50;93.10
14014;DHT22;49110;52.584;13.408;2023-04-25T02:13:19;11.50;92.90
14014;DHT22;49110;52.584;13.408;2023-04-25T02:14:19;11.50;93.00
14014;DHT22;49110;52.584;13.408;2023-04-25T02:15:20;11.50;93.00
14014;DHT22;49110;52.584;13.408;2023-04-25T02:16:21;11.40;93.00
14014;DHT22;49110;52.584;13.408;2023-04-25T02:17:21;11.50;93.30
14014;DHT22;49110;52.584;13.408;2023-04-25T02:18:22;11.50;93.40
14014;DHT22;49110;52.584;13.408;2023-04-25T02:19:22;11.60;93.30
14014;DHT22;49110;52.584;13.408;2023-04-25T02:20:23;11.60;93.20
14014;DHT22;49110;52.584;13.408;2023-04-25T02:21:24;11.60;93.20
14014;DHT22;49110;52.584;13.408;2023-04-25T02:22:26;11.60;93.20
14014;DHT22;49110;52.584;13.408;2023-04-25T02:23:28;11.60;93.30
14014;DHT22;49110;52.584;13.408;2023-04-25T02:24:28;11.50;93.30
14014;DHT22;49110;52.584;13.408;2023-04-25T02:25:29;11.50;93.30
14014;DHT22;49110;52.584;13.408;2023-04-25T02:26:30;11.50;93.30
14014;DHT22;49110;52.584;13.408;2023-04-25T02:27:31;11.40;93.40
14014;DHT22;49110;52.584;13.408;2023-04-25T02:28:31;11.50;93.40
14014;DHT22;49110;52.584;13.408;2023-04-25T02:29:32;11.40;93.40
14014;DHT22;49110;52.584;13.408;2023-04-25T02:30:32;11.40;93.60
14014;DHT22;49110;52.584;13.408;2023-04-25T02:31:33;11.40;93.60
14014;DHT22;49110;52.584;13.408;2023-04-25T02:32:33;11.40;93.60
14014;DHT22;49110;52.584;13.408;2023-04-25T02:33:37;11.40;93.60
14014;DHT22;49110;52.584;13.408;2023-04-25T02:34:37;11.40;93.60
14014;DHT22;49110;52.584;13.408;2023-04-25T02:35:38;11.40;93.70
14014;DHT22;49110;52.584;13.408;2023-04-25T02:36:38;11.40;93.50
14014;DHT22;49110;52.584;13.408;2023-04-25T02:37:39;11.40;93.60
14014;DHT22;49110;52.584;13.408;2023-04-25T02:38:40;11.50;93.80
14014;DHT22;49110;52.584;13.408;2023-04-25T02:39:40;11.40;93.60
14014;DHT22;49110;52.584;13.408;2023-04-25T02:40:41;11.40;93.60
14014;DHT22;49110;52.584;13.408;2023-04-25T02:41:42;11.40;93.70
14014;DHT22;49110;52.584;13.408;2023-04-25T02:42:42;11.40;93.80
14014;DHT22;49110;52.584;13.408;2023-04-25T02:43:43;11.50;93.90
14014;DHT22;49110;52.584;13.408;2023-04-25T02:44:43;11.50;93.70
14014;DHT22;49110;52.584;13.408;2023-04-25T02:45:44;11.50;93.50
14014;DHT22;49110;52.584;13.408;2023-04-25T02:46:45;11.50;93.50
14014;DHT22;49110;52.584;13.408;2023-04-25T02:47:45;11.40;93.30
14014;DHT22;49110;52.584;13.408;2023-04-25T02:48:46;11.50;93.50
14014;DHT22;49110;52.584;13.408;2023-04-25T02:49:47;11.50;93.40
14014;DHT22;49110;52.584;13.408;2023-04-25T02:50:47;11.50;93.40
14014;DHT22;49110;52.584;13.408;2023-04-25T02:51:48;11.50;93.40
14014;DHT22;49110;52.584;13.408;2023-04-25T02:52:48;11.50;93.40
14014;DHT22;49110;52.584;13.408;2023-04-25T02:53:49;11.50;93.40
14014;DHT22;49110;52.584;13.408;2023-04-25T02:54:49;11.40;93.70
14014;DHT22;49110;52.584;13.408;2023-04-25T02:55:49;11.40;93.30
14014;DHT22;49110;52.584;13.408;2023-04-25T02:56:52;11.40;93.50
14014;DHT22;49110;52.584;13.408;2023-04-25T02:57:53;11.40;93.70
14014;DHT22;49110;52.584;13.408;2023-04-25T02:58:55;11.50;93.70
14014;DHT22;49110;52.584;13.408;2023-04-25T02:59:56;11.50;93.80
14014;DHT22;49110;52.584;13.408;2023-04-25T03:00:56;11.50;93.80
14014;DHT22;49110;52.584;13.408;2023-04-25T03:01:57;11.50;93.50
14014;DHT22;49110;52.584;13.408;2023-04-25T03:02:57;11.40;93.40
14014;DHT22;49110;52.584;13.408;2023-04-25T03:03:58;11.50;93.50
14014;DHT22;49110;52.584;13.408;2023-04-25T03:04:58;11.40;93.50
14014;DHT22;49110;52.584;13.408;2023-04-25T03:05:59;11.40;93.80
14014;DHT22;49110;52.584;13.408;2023-04-25T03:06:59;11.40;93.50
14014;DHT22;49110;52.584;13.408;2023-04-25T03:08:00;11.30;93.50
14014;DHT22;49110;52.584;13.408;2023-04-25T03:09:00;11.30;93.70
14014;DHT22;49110;52.584;13.408;2023-04-25T03:10:01;11.40;93.80
14014;DHT22;49110;52.584;13.408;2023-04-25T03:11:01;11.40;93.70
14014;DHT22;49110;52.584;13.408;2023-04-25T03:12:02;11.40;93.60
14014;DHT22;49110;52.584;13.408;2023-04-25T03:13:02;11.40;93.50
14014;DHT22;49110;52.584;13.408;2023-04-25T03:14:03;11.40;93.40
14014;DHT22;49110;52.584;13.408;2023-04-25T03:15:04;11.40;93.40
14014;DHT22;49110;52.584;13.408;2023-04-25T03:16:05;11.40;93.60
14014;DHT22;49110;52.584;13.408;2023-04-25T03:17:05;11.50;93.60
14014;DHT22;49110;52.584;13.408;2023-04-25T03:18:06;11.50;93.50
14014;DHT22;49110;52.584;13.408;2023-04-25T03:19:06;11.50;93.50
14014;DHT22;49110;52.584;13.408;2023-04-25T03:20:07;11.50;93.60
14014;DHT22;49110;52.584;13.408;2023-04-25T03:21:08;11.50;93.70
14014;DHT22;49110;52.584;13.408;2023-04-25T03:22:09;11.50;93.40
14014;DHT22;49110;52.584;13.408;2023-04-25T03:23:09;11.50;93.40
14014;DHT22;49110;52.584;13.408;2023-04-25T03:24:10;11.50;93.30
14014;DHT22;49110;52.584;13.408;2023-04-25T03:25:13;11.50;93.40
14014;DHT22;49110;52.584;13.408;2023-04-25T03:26:14;11.50;93.30
14014;DHT22;49110;52.584;13.408;2023-04-25T03:27:14;11.50;93.40
14014;DHT22;49110;52.584;13.408;2023-04-25T03:28:15;11.40;93.40
14014;DHT22;49110;52.584;13.408;2023-04-25T03:29:16;11.40;93.30
14014;DHT22;49110;52.584;13.408;2023-04-25T03:30:16;11.40;93.40
14014;DHT22;49110;52.584;13.408;2023-04-25T03:31:17;11.40;93.50
14014;DHT22;49110;52.584;13.408;2023-04-25T03:32:17;11.30;93.50
14014;DHT22;49110;52.584;13.408;2023-04-25T03:33:18;11.40;93.90
14014;DHT22;49110;52.584;13.408;2023-04-25T03:34:18;11.40;93.70
14014;DHT22;49110;52.584;13.408;2023-04-25T03:35:19;11.40;93.70
14014;DHT22;49110;52.584;13.408;2023-04-25T03:36:19;11.40;93.70
14014;DHT22;49110;52.584;13.408;2023-04-25T03:37:20;11.40;93.60
14014;DHT22;49110;52.584;13.408;2023-04-25T03:38:20;11.50;93.70
14014;DHT22;49110;52.584;13.408;2023-04-25T03:39:21;11.40;93.60
14014;DHT22;49110;52.584;13.408;2023-04-25T03:40:21;11.40;93.50
14014;DHT22;49110;52.584;13.408;2023-04-25T03:41:22;11.50;93.50
14014;DHT22;49110;52.584;13.408;2023-04-25T03:42:22;11.40;93.50
14014;DHT22;49110;52.584;13.408;2023-04-25T03:43:23;11.40;93.60
14014;DHT22;49110;52.584;13.408;2023-04-25T03:44:23;11.30;93.60
14014;DHT22;49110;52.584;13.408;2023-04-25T03:45:24;11.30;93.70
14014;DHT22;49110;52.584;13.408;2023-04-25T03:46:25;11.30;93.70
14014;DHT22;49110;52.584;13.408;2023-04-25T03:47:25;11.30;93.70
14014;DHT22;49110;52.584;13.408;2023-04-25T03:48:26;11.40;93.80
14014;DHT22;49110;52.584;13.408;2023-04-25T03:49:27;11.40;93.70
14014;DHT22;49110;52.584;13.408;2023-04-25T03:50:27;11.40;93.70
14014;DHT22;49110;52.584;13.408;2023-04-25T03:51:28;11.40;93.70
14014;DHT22;49110;52.584;13.408;2023-04-25T03:52:28;11.40;93.70
14014;DHT22;49110;52.584;13.408;2023-04-25T03:53:29;11.40;93.70
14014;DHT22;49110;52.584;13.408;2023-04-25T03:54:29;11.40;93.70
14014;DHT22;49110;52.584;13.408;2023-04-25T03:55:30;11.40;93.70
14014;DHT22;49110;52.584;13.408;2023-04-25T03:56:31;11.30;93.70
14014;DHT22;49110;52.584;13.408;2023-04-25T03:57:31;11.20;93.80
14014;DHT22;49110;52.584;13.408;2023-04-25T03:58:32;11.20;93.80
14014;DHT22;49110;52.584;13.408;2023-04-25T03:59:32;11.20;94.00
14014;DHT22;49110;52.584;13.408;2023-04-25T04:00:33;11.30;94.10
14014;DHT22;49110;52.584;13.408;2023-04-25T04:01:33;11.20;94.00
14014;DHT22;49110;52.584;13.408;2023-04-25T04:02:34;11.20;94.10
14014;DHT22;49110;52.584;13.408;2023-04-25T04:03:35;11.20;94.10
14014;DHT22;49110;52.584;13.408;2023-04-25T04:04:36;11.30;94.30
14014;DHT22;49110;52.584;13.408;2023-04-25T04:05:37;11.30;94.10
14014;DHT22;49110;52.584;13.408;2023-04-25T04:06:40;11.20;93.80
14014;DHT22;49110;52.584;13.408;2023-04-25T04:07:41;11.20;93.90
14014;DHT22;49110;52.584;13.408;2023-04-25T04:08:42;11.20;94.00
14014;DHT22;49110;52.584;13.408;2023-04-25T04:09:43;11.20;93.90
14014;DHT22;49110;52.584;13.408;2023-04-25T04:10:43;11.20;94.00
14014;DHT22;49110;52.584;13.408;2023-04-25T04:11:44;11.20;94.00
14014;DHT22;49110;52.584;13.408;2023-04-25T04:12:45;11.20;94.10
14014;DHT22;49110;52.584;13.408;2023-04-25T04:13:45;11.20;94.10
14014;DHT22;49110;52.584;13.408;2023-04-25T04:14:46;11.30;94.10
14014;DHT22;49110;52.584;13.408;2023-04-25T04:15:46;11.30;94.00
14014;DHT22;49110;52.584;13.408;2023-04-25T04:16:47;11.30;93.90
14014;DHT22;49110;52.584;13.408;2023-04-25T04:17:48;11.20;93.90
14014;DHT22;49110;52.584;13.408;2023-04-25T04:18:49;11.20;94.00
14014;DHT22;49110;52.584;13.408;2023-04-25T04:19:49;11.20;94.00
14014;DHT22;49110;52.584;13.408;2023-04-25T04:20:50;11.30;94.10
14014;DHT22;49110;52.584;13.408;2023-04-25T04:21:50;11.30;94.20
14014;DHT22;49110;52.584;13.408;2023-04-25T04:22:51;11.30;94.00
14014;DHT22;49110;52.584;13.408;2023-04-25T04:23:51;11.30;93.70
14014;DHT22;49110;52.584;13.408;2023-04-25T04:24:52;11.30;93.90
14014;DHT22;49110;52.584;13.408;2023-04-25T04:25:53;11.30;94.00
14014;DHT22;49110;52.584;13.408;2023-04-25T04:26:54;11.30;94.00
14014;DHT22;49110;52.584;13.408;2023-04-25T04:27:57;11.20;93.90
14014;DHT22;49110;52.584;13.408;2023-04-25T04:28:58;11.20;94.00
14014;DHT22;49110;52.584;13.408;2023-04-25T04:29:59;11.20;94.00
14014;DHT22;49110;52.584;13.408;2023-04-25T04:31:00;11.20;94.10
14014;DHT22;49110;52.584;13.408;2023-04-25T04:32:02;11.20;94.20
14014;DHT22;49110;52.584;13.408;2023-04-25T04:33:03;11.30;94.20
14014;DHT22;49110;52.584;13.408;2023-04-25T04:34:04;11.30;94.20
14014;DHT22;49110;52.584;13.408;2023-04-25T04:35:05;11.40;94.20
14014;DHT22;49110;52.584;13.408;2023-04-25T04:36:06;11.40;94.20
14014;DHT22;49110;52.584;13.408;2023-04-25T04:37:08;11.40;94.30
14014;DHT22;49110;52.584;13.408;2023-04-25T04:38:10;11.30;93.80
14014;DHT22;49110;52.584;13.408;2023-04-25T04:39:12;11.30;93.90
14014;DHT22;49110;52.584;13.408;2023-04-25T04:40:14;11.30;93.90
14014;DHT22;49110;52.584;13.408;2023-04-25T04:41:15;11.30;93.90
14014;DHT22;49110;52.584;13.408;2023-04-25T04:42:16;11.30;93.90
14014;DHT22;49110;52.584;13.408;2023-04-25T04:43:17;11.30;94.00
14014;DHT22;49110;52.584;13.408;2023-04-25T04:44:19;11.30;94.10
14014;DHT22;49110;52.584;13.408;2023-04-25T04:45:20;11.30;94.10
14014;DHT22;49110;52.584;13.408;2023-04-25T04:46:20;11.40;94.10
14014;DHT22;49110;52.584;13.408;2023-04-25T04:47:21;11.40;94.10
14014;DHT22;49110;52.584;13.408;2023-04-25T04:48:24;11.40;94.00
14014;DHT22;49110;52.584;13.408;2023-04-25T04:49:24;11.40;93.90
14014;DHT22;49110;52.584;13.408;2023-04-25T04:50:25;11.40;94.10
14014;DHT22;49110;52.584;13.408;2023-04-25T04:51:27;11.40;94.00
14014;DHT22;49110;52.584;13.408;2023-04-25T04:52:28;11.40;93.90
14014;DHT22;49110;52.584;13.408;2023-04-25T04:53:28;11.40;94.00
14014;DHT22;49110;52.584;13.408;2023-04-25T04:54:29;11.40;94.10
14014;DHT22;49110;52.584;13.408;2023-04-25T04:55:29;11.40;93.90
14014;DHT22;49110;52.584;13.408;2023-04-25T04:56:30;11.50;94.00
14014;DHT22;49110;52.584;13.408;2023-04-25T04:57:31;11.40;94.30
14014;DHT22;49110;52.584;13.408;2023-04-25T04:58:33;11.50;94.50
14014;DHT22;49110;52.584;13.408;2023-04-25T04:59:33;11.50;93.90
14014;DHT22;49110;52.584;13.408;2023-04-25T05:00:34;11.60;93.70
14014;DHT22;49110;52.584;13.408;2023-04-25T05:01:35;11.50;93.60
14014;DHT22;49110;52.584;13.408;2023-04-25T05:02:37;11.60;94.00
14014;DHT22;49110;52.584;13.408;2023-04-25T05:03:38;11.60;94.30
14014;DHT22;49110;52.584;13.408;2023-04-25T05:04:38;11.60;94.40
14014;DHT22;49110;52.584;13.408;2023-04-25T05:05:39;11.60;94.70
14014;DHT22;49110;52.584;13.408;2023-04-25T05:06:42;11.70;94.90
14014;DHT22;49110;52.584;13.408;2023-04-25T05:07:44;11.70;94.10
14014;DHT22;49110;52.584;13.408;2023-04-25T05:08:45;11.70;95.10
14014;DHT22;49110;52.584;13.408;2023-04-25T05:09:45;11.60;94.20
14014;DHT22;49110;52.584;13.408;2023-04-25T05:10:46;11.70;94.20
14014;DHT22;49110;52.584;13.408;2023-04-25T05:11:47;11.70;94.60
14014;DHT22;49110;52.584;13.408;2023-04-25T05:12:47;11.70;94.20
14014;DHT22;49110;52.584;13.408;2023-04-25T05:13:49;11.70;94.10
14014;DHT22;49110;52.584;13.408;2023-04-25T05:14:50;11.80;94.30
14014;DHT22;49110;52.584;13.408;2023-04-25T05:15:50;11.80;94.70
14014;DHT22;49110;52.584;13.408;2023-04-25T05:16:51;11.90;94.80
14014;DHT22;49110;52.584;13.408;2023-04-25T05:17:51;11.90;94.70
14014;DHT22;49110;52.584;13.408;2023-04-25T05:18:52;12.00;95.00
14014;DHT22;49110;52.584;13.408;2023-04-25T05:19:52;12.10;94.80
14014;DHT22;49110;52.584;13.408;2023-04-25T05:20:53;12.20;94.40
14014;DHT22;49110;52.584;13.408;2023-04-25T05:21:53;12.20;94.00
14014;DHT22;49110;52.584;13.408;2023-04-25T05:22:54;12.20;94.30
14014;DHT22;49110;52.584;13.408;2023-04-25T05:23:55;12.20;93.70
14014;DHT22;49110;52.584;13.408;2023-04-25T05:24:55;12.20;93.70
14014;DHT22;49110;52.584;13.408;2023-04-25T05:25:56;12.20;93.90
14014;DHT22;49110;52.584;13.408;2023-04-25T05:26:57;12.10;94.20
14014;DHT22;49110;52.584;13.408;2023-04-25T05:27:57;12.10;93.80
14014;DHT22;49110;52.584;13.408;2023-04-25T05:28:58;12.00;93.90
14014;DHT22;49110;52.584;13.408;2023-04-25T05:29:59;12.00;94.20
14014;DHT22;49110;52.584;13.408;2023-04-25T05:30:59;12.00;93.70
14014;DHT22;49110;52.584;13.408;2023-04-25T05:32:00;11.90;93.80
14014;DHT22;49110;52.584;13.408;2023-04-25T05:33:01;11.90;93.50
14014;DHT22;49110;52.584;13.408;2023-04-25T05:34:02;11.80;93.80
14014;DHT22;49110;52.584;13.408;2023-04-25T05:35:05;11.80;93.70
14014;DHT22;49110;52.584;13.408;2023-04-25T05:36:07;11.80;93.70
14014;DHT22;49110;52.584;13.408;2023-04-25T05:37:07;11.80;93.70
14014;DHT22;49110;52.584;13.408;2023-04-25T05:38:08;11.80;93.90
14014;DHT22;49110;52.584;13.408;2023-04-25T05:39:09;11.80;93.70
14014;DHT22;49110;52.584;13.408;2023-04-25T05:40:10;11.80;93.80
14014;DHT22;49110;52.584;13.408;2023-04-25T05:41:10;11.70;93.80
14014;DHT22;49110;52.584;13.408;2023-04-25T05:42:11;11.60;93.70
14014;DHT22;49110;52.584;13.408;2023-04-25T05:43:11;11.60;93.80
14014;DHT22;49110;52.584;13.408;2023-04-25T05:44:12;11.60;93.90
14014;DHT22;49110;52.584;13.408;2023-04-25T05:45:12;11.60;94.00
14014;DHT22;49110;52.584;13.408;2023-04-25T05:46:13;11.50;93.90
14014;DHT22;49110;52.584;13.408;2023-04-25T05:47:13;11.50;93.80
14014;DHT22;49110;52.584;13.408;2023-04-25T05:48:14;11.50;94.00
14014;DHT22;49110;52.584;13.408;2023-04-25T05:49:14;11.60;94.10
14014;DHT22;49110;52.584;13.408;2023-04-25T05:50:15;11.40;94.00
14014;DHT22;49110;52.584;13.408;2023-04-25T05:51:15;11.40;94.10
14014;DHT22;49110;52.584;13.408;2023-04-25T05:52:16;11.50;94.40
14014;DHT22;49110;52.584;13.408;2023-04-25T05:53:18;11.50;94.30
14014;DHT22;49110;52.584;13.408;2023-04-25T05:54:18;11.50;94.20
14014;DHT22;49110;52.584;13.408;2023-04-25T05:55:18;11.60;94.30
14014;DHT22;49110;52.584;13.408;2023-04-25T05:56:19;11.60;94.40
14014;DHT22;49110;52.584;13.408;2023-04-25T05:57:23;11.70;94.30
14014;DHT22;49110;52.584;13.408;2023-04-25T05:58:24;11.60;94.10
14014;DHT22;49110;52.584;13.408;2023-04-25T05:59:25;11.60;94.10
14014;DHT22;49110;52.584;13.408;2023-04-25T06:00:26;11.60;94.20
14014;DHT22;49110;52.584;13.408;2023-04-25T06:01:26;11.60;94.20
14014;DHT22;49110;52.584;13.408;2023-04-25T06:02:27;11.50;94.30
14014;DHT22;49110;52.584;13.408;2023-04-25T06:03:27;11.60;94.30
14014;DHT22;49110;52.584;13.408;2023-04-25T06:04:28;11.50;94.40
14014;DHT22;49110;52.584;13.408;2023-04-25T06:05:28;11.50;94.50
14014;DHT22;49110;52.584;13.408;2023-04-25T06:06:29;11.50;94.70
14014;DHT22;49110;52.584;13.408;2023-04-25T06:07:29;11.60;94.70
14014;DHT22;49110;52.584;13.408;2023-04-25T06:08:31;11.50;94.60
14014;DHT22;49110;52.584;13.408;2023-04-25T06:09:32;11.50;94.80
14014;DHT22;49110;52.584;13.408;2023-04-25T06:10:32;11.60;94.90
14014;DHT22;49110;52.584;13.408;2023-04-25T06:11:33;11.60;94.90
14014;DHT22;49110;52.584;13.408;2023-04-25T06:12:33;11.60;94.70
14014;DHT22;49110;52.584;13.408;2023-04-25T06:13:34;11.60;94.60
14014;DHT22;49110;52.584;13.408;2023-04-25T06:14:35;11.70;94.60
14014;DHT22;49110;52.584;13.408;2023-04-25T06:15:35;11.70;94.50
14014;DHT22;49110;52.584;13.408;2023-04-25T06:16:36;11.70;94.60
14014;DHT22;49110;52.584;13.408;2023-04-25T06:17:36;11.80;94.60
14014;DHT22;49110;52.584;13.408;2023-04-25T06:18:37;11.80;94.40